createdAt,value
2024-05-09T00:00:48.678Z,11.1
2024-05-09T00:10:48.860Z,11.1
2024-05-09T00:20:49.001Z,11
2024-05-09T00:30:49.216Z,10.9
2024-05-09T00:40:49.421Z,11
2024-05-09T00:50:49.628Z,11
2024-05-09T01:10:50.061Z,10.8
2024-05-09T01:20:50.243Z,10.6
2024-05-09T01:30:50.371Z,10.5
2024-05-09T01:40:50.602Z,10.4
2024-05-09T01:50:50.863Z,10.3
2024-05-09T02:00:51.022Z,10.1
2024-05-09T02:10:51.409Z,10.1
2024-05-09T02:20:51.392Z,10
2024-05-09T02:40:51.774Z,9.7
2024-05-09T02:50:52.120Z,9.7
2024-05-09T03:00:52.292Z,9.6
2024-05-09T03:10:52.447Z,9.5
2024-05-09T03:20:52.602Z,9.4
2024-05-09T03:30:52.773Z,9.4
2024-05-09T03:40:53.034Z,9.3
2024-05-09T03:50:53.234Z,9.2
2024-05-09T04:00:53.478Z,9.1
2024-05-09T04:10:53.596Z,9.2
2024-05-09T04:40:54.291Z,9.1
2024-05-09T05:00:54.618Z,9.5
2024-05-09T05:10:54.809Z,9.7
2024-05-09T05:30:55.211Z,10.1
2024-05-09T05:40:55.443Z,10.4
2024-05-09T05:50:55.661Z,10.7
2024-05-09T06:00:55.841Z,11.2
2024-05-09T06:10:56.057Z,11.5
2024-05-09T06:20:56.269Z,11.9
2024-05-09T06:30:56.418Z,12.4
2024-05-09T06:50:56.828Z,13.2
2024-05-09T07:00:57.022Z,13.8
2024-05-09T07:10:57.245Z,14
2024-05-09T07:20:57.501Z,14.7
2024-05-09T07:40:57.827Z,15.8
2024-05-09T08:00:58.253Z,16.2
2024-05-09T08:10:58.401Z,16.6
2024-05-09T08:30:59.032Z,16.5
2024-05-09T08:40:59.006Z,16.9
2024-05-09T08:50:59.251Z,17.1
2024-05-09T09:00:59.463Z,17.3
2024-05-09T09:10:59.578Z,17.9
2024-05-09T09:20:59.842Z,18.2
2024-05-09T09:41:00.274Z,19.8
2024-05-09T10:01:00.767Z,20.3
2024-05-09T10:21:00.964Z,20.5
2024-05-09T10:51:01.556Z,20.4
2024-05-09T11:01:04.476Z,20.8
2024-05-09T11:11:01.961Z,20.5
2024-05-09T11:21:02.135Z,19.7
2024-05-09T11:51:02.707Z,21.9
2024-05-09T12:01:03.076Z,22.2
2024-05-09T12:21:03.303Z,22.3
2024-05-09T12:41:03.741Z,21.6
2024-05-09T12:51:03.912Z,21.7
2024-05-09T13:01:04.201Z,22.5
2024-05-09T13:11:04.297Z,23.1
2024-05-09T13:21:10.584Z,22.2
2024-05-09T13:31:16.915Z,21.6
2024-05-09T13:41:04.884Z,21.3
2024-05-09T13:51:05.070Z,21.8
2024-05-09T14:01:05.398Z,22.6
2024-05-09T14:11:05.515Z,22.2
2024-05-09T14:21:05.660Z,22.1
2024-05-09T14:41:06.075Z,21.9
2024-05-09T14:51:06.252Z,21.9
2024-05-09T15:21:06.883Z,21
2024-05-09T15:31:07.063Z,21
2024-05-09T15:41:07.220Z,20.8
2024-05-09T15:51:07.422Z,20.7
2024-05-09T16:01:07.667Z,20.6
2024-05-09T16:11:07.863Z,20.6
2024-05-09T16:41:08.448Z,20.4
2024-05-09T17:11:09.076Z,19.9
2024-05-09T17:21:09.174Z,19.9
2024-05-09T17:31:09.408Z,19.8
2024-05-09T17:41:09.565Z,19.6
2024-05-09T17:51:09.765Z,19.6
2024-05-09T18:01:10.011Z,19.4
2024-05-09T18:11:10.335Z,19.2
2024-05-09T18:21:10.374Z,19.1
2024-05-09T18:31:10.570Z,18.9
2024-05-09T18:41:10.808Z,18.6
2024-05-09T18:51:10.950Z,18.2
2024-05-09T19:01:11.185Z,17.8
2024-05-09T19:21:11.546Z,17.3
2024-05-09T19:31:11.802Z,17
2024-05-09T19:41:11.930Z,16.8
2024-05-09T19:51:12.144Z,16.5
2024-05-09T20:01:12.402Z,16.2
2024-05-09T20:11:12.581Z,15.9
2024-05-09T20:21:12.753Z,15.8
2024-05-09T20:31:12.929Z,15.7
2024-05-09T20:41:13.136Z,15.7
2024-05-09T20:51:13.353Z,15.5
2024-05-09T21:01:13.594Z,15.3
2024-05-09T21:11:13.723Z,15.1
2024-05-09T21:21:13.950Z,14.9
2024-05-09T21:31:14.161Z,14.8
2024-05-09T21:51:14.516Z,14.5
2024-05-09T22:01:14.747Z,14.4
2024-05-09T22:11:14.946Z,14.3
2024-05-09T22:21:15.156Z,14.2
2024-05-09T22:41:15.503Z,14
2024-05-09T22:51:15.717Z,13.7
2024-05-09T23:01:15.945Z,13.4
2024-05-09T23:21:16.317Z,13
2024-05-09T23:41:16.728Z,12.8
2024-05-09T23:51:16.907Z,12.6
